• Join FlightAware (Why Join?)
  • Login
  • US Flag 
03:13AM EDT


 

Airport Tracker/Info


-or-


 

Live Flight TrackerFlight Track Log ✈ N143DE ✈ 22-Aug-2013 ✈ KRYY - KJZI

Flight Track Log - Related Links

Times and Time Zones

All times are in EDT time to prevent confusion due to time zone crossing. See the N143DE flight status page for this flight to view local times or setup timezone preferences in your user account.

Time Position Orientation Groundspeed Altitude Reporting Facility
EDT Latitude Longitude Course Direction KTS MPH feet Rate Location/Type
11:05AM 34.0333 -84.6333 40° Northeast 154 177 3,400  Level Atlanta TRACON
11:06AM 34.0667 -84.6000 40° Northeast 186 214 4,900 1,500 Climbing Atlanta TRACON
11:07AM 34.0667 -84.5333 90° East 191 220 6,300 960 Climbing Atlanta TRACON
11:08AM 34.0667 -84.4667 90° East 226 260 7,000 300 Climbing Atlanta TRACON
11:09AM 34.0667 -84.3833 90° East 243 280 7,000  Level Atlanta TRACON
11:10AM 34.0667 -84.3000 90° East 243 280 7,000  Level Atlanta TRACON
11:11AM 34.0667 -84.2333 90° East 248 285 7,000  Level Atlanta TRACON
11:12AM 34.0500 -84.1500 104° East 243 280 7,000  Level Atlanta TRACON
11:13AM 34.0333 -84.0667 104° East 246 283 7,000 -60 Level Atlanta TRACON
11:14AM 34.0000 -83.9833 116° Southeast 246 283 6,900 -60 Descending Atlanta TRACON
11:15AM 33.9667 -83.9167 121° Southeast 244 281 6,900 180 Level Atlanta TRACON
11:15AM 33.9547 -83.8736 108° East 260 299 7,300 1,020 Climbing Atlanta Center
11:16AM 33.9297 -83.8083 115° Southeast 237 273 8,700 1,320 Climbing Atlanta Center
11:17AM 33.9003 -83.7358 99° East 216 249 10,000 1,140 Climbing Atlanta Center
11:18AM 33.8958 -83.6608 94° East 216 249 11,000 1,080 Climbing Atlanta Center
11:19AM 33.8811 -83.5883 104° East 216 249 12,200 1,380 Climbing Atlanta Center
11:20AM 33.8767 -83.5208 95° East 207 238 13,800 1,500 Climbing Atlanta Center
11:21AM 33.8700 -83.4583 97° East 202 232 15,200 1,260 Climbing Atlanta Center
11:22AM 33.8594 -83.3958 101° East 195 224 16,400 1,200 Climbing Atlanta Center
11:23AM 33.8528 -83.3333 97° East 190 219 17,600 1,020 Climbing Atlanta Center
11:24AM 33.8461 -83.2708 97° East 190 219 18,500 960 Climbing Atlanta Center
11:25AM 33.8375 -83.2111 100° East 184 212 19,600 1,020 Climbing Atlanta Center
11:26AM 33.8306 -83.1511 98° East 179 206 20,600 900 Climbing Atlanta Center
11:27AM 33.8219 -83.0886 99° East 179 206 21,400 780 Climbing Atlanta Center
11:28AM 33.8150 -83.0261 98° East 184 212 22,200 720 Climbing Atlanta Center
11:29AM 33.8042 -82.9589 101° East 189 217 22,900 420 Climbing Atlanta Center
11:30AM 33.7950 -82.8864 99° East 201 231 23,100  Climbing Atlanta Center
11:31AM 33.7861 -82.8092 98° East 213 245 23,000 -60 Descending Atlanta Center
11:32AM 33.7767 -82.7267 98° East 235 270 23,000  Level Atlanta Center
11:33AM 33.7675 -82.6419 97° East 246 283 23,000  Level Atlanta Center
11:34AM 33.7561 -82.5572 99° East 253 291 23,000  Level Atlanta Center
11:35AM 33.7447 -82.4775 100° East 258 297 23,000  Level Atlanta Center
11:36AM 33.7353 -82.3925 98° East 265 305 23,000  Level Atlanta Center
11:37AM 33.7214 -82.3006 100° East 277 319 23,000  Level Atlanta Center
11:38AM 33.7117 -82.2133 98° East 271 312 23,000  Level Atlanta Center
11:41AM 33.6603 -82.0142 107° East 259 298 23,000  Level Jacksonville Center
11:42AM 33.6344 -81.9297 110° East 265 305 23,000  Level Jacksonville Center
11:43AM 33.6089 -81.8475 110° East 271 312 23,000  Level Jacksonville Center
11:44AM 33.5808 -81.7633 112° Southeast 271 312 23,000 -480 Level Jacksonville Center
11:45AM 33.5550 -81.6764 110° East 271 312 22,100 -1,140 Descending Jacksonville Center
11:46AM 33.5206 -81.5747 112° Southeast 289 333 20,800 -1,200 Descending Jacksonville Center
11:47AM 33.4739 -81.4906 124° Southeast 295 339 19,800 -960 Descending Jacksonville Center
11:48AM 33.4311 -81.4067 121° Southeast 295 339 18,900 -960 Descending Jacksonville Center
11:49AM 33.3864 -81.3203 122° Southeast 295 339 17,900 -1,020 Descending Jacksonville Center
11:50AM 33.3456 -81.2367 120° Southeast 300 345 16,900 -1,200 Descending Jacksonville Center
11:51AM 33.3028 -81.1578 123° Southeast 295 339 15,500 -1,320 Descending Jacksonville Center
11:52AM 33.2619 -81.0767 121° Southeast 290 334 14,300 -1,200 Descending Jacksonville Center
11:53AM 33.2189 -80.9956 122° Southeast 290 334 13,100 -1,260 Descending Jacksonville Center
11:54AM 33.1781 -80.9169 122° Southeast 285 328 11,800 -1,080 Descending Jacksonville Center
11:55AM 33.1394 -80.8386 120° Southeast 285 328 11,000 -1,020 Descending Jacksonville Center
11:56AM 33.1006 -80.7675 123° Southeast 272 313 9,800 -1,260 Descending Jacksonville Center
11:57AM 33.0661 -80.6964 120° Southeast 258 297 8,600 -1,200 Descending Jacksonville Center
11:58AM 33.0272 -80.6306 125° Southeast 253 291 7,500 -1,140 Descending Jacksonville Center
11:59AM 32.9928 -80.5644 122° Southeast 253 291 6,400 -1,020 Descending Jacksonville Center
12:00PM 32.9561 -80.5011 125° Southeast 243 280 5,500 -900 Descending Jacksonville Center
12:01PM 32.9233 -80.4375 122° Southeast 236 272 4,700 -840 Descending Jacksonville Center
12:02PM 32.8867 -80.3767 126° Southeast 226 260 3,900 -840 Descending Jacksonville Center
12:03PM 32.8542 -80.3158 122° Southeast 226 260 3,100 -840 Descending Jacksonville Center
12:05PM 32.7798 -80.1636 125° Southeast  Level Estimated
12:12PM 32.7000 -80.0000 132° Southeast  Level FlightAware Approximate